Forside
METAR-TAF:

METAR-TAF

Lufthavne :

Nagasaki, Japan

Breddekreds: 32-55N, længdekreds: 129-55E, højde: 2 m

Aktuelle vejr

Denne rapport blev lavet for 6 timer og 32 minutter siden, kl. 12:00 UTC
Vind 1 kt fra varierende retninger
Temperatur 13°C
Fugtighed 72%
Tryk 1020 hPa
Sigt 10 km eller mere
ingen skyer under 1500m og ingen cumulonimbus

METAR: RJFU 031200Z VRB01KT CAVOK 13/08 Q1020

Tid: 03:32 (18:32 UTC)

Vejrudsigter

Denne rapport blev lavet for 1 time og 27 minutter siden, kl. 17:05 UTC
Foreløbig gælder fra 03 på 18 UTC til 05 på 00 UTC
Vind 3 kt fra sydøst
Sigt 10 km eller mere
Nogle få skyer i en højde af 4500 ft
ændring
fra 03 på 22 UTC til 04 på 00 UTC
Vind 12 kt fra nordvest

TAF: RJFU 031705Z 0318/0500 14003KT 9999 FEW045 BECMG 0322/0400 31012KT

Vejrobservationer og prognoser fra mere end 4000 lufthavne (METAR og TAF).

De gule og røde prikker repræsenterer de meteorologiske stationer.

Flyt musen over at se navnet på stationen.

Så klik over at se vejr observationer og prognoser.

At skifte det kort: Klik på de grønne knapper med et sort kors for at zoome ind; på den grønne knap med en bindestreg for at zoome ud; eller på de grønne pile for tilstødende kort.


METAR-TAF: